sensor_id;sensor_type;location;lat;lon;timestamp;pressure;altitude;pressure_sealevel;temperature;humidity
66880;BME280;72009;51.392;10.234;2023-09-19T00:00:14;97333.38;;;16.78;100.00
66880;BME280;72009;51.392;10.234;2023-09-19T00:00:35;97335.38;;;16.77;100.00
66880;BME280;72009;51.392;10.234;2023-09-19T00:00:58;97330.59;;;16.78;100.00
66880;BME280;72009;51.392;10.234;2023-09-19T00:01:18;97327.03;;;16.77;100.00
66880;BME280;72009;51.392;10.234;2023-09-19T00:01:40;97331.44;;;16.78;100.00
66880;BME280;72009;51.392;10.234;2023-09-19T00:02:00;97325.88;;;16.78;100.00
66880;BME280;72009;51.392;10.234;2023-09-19T00:02:20;97331.44;;;16.78;100.00
66880;BME280;72009;51.392;10.234;2023-09-19T00:02:41;97334.56;;;16.77;100.00
66880;BME280;72009;51.392;10.234;2023-09-19T00:03:01;97329.03;;;16.77;100.00
66880;BME280;72009;51.392;10.234;2023-09-19T00:03:21;97330.59;;;16.78;100.00
66880;BME280;72009;51.392;10.234;2023-09-19T00:03:42;97333.75;;;16.76;100.00
66880;BME280;72009;51.392;10.234;2023-09-19T00:04:02;97334.56;;;16.77;100.00
66880;BME280;72009;51.392;10.234;2023-09-19T00:04:22;97338.94;;;16.78;100.00
66880;BME280;72009;51.392;10.234;2023-09-19T00:04:43;97333.75;;;16.76;100.00
66880;BME280;72009;51.392;10.234;2023-09-19T00:05:03;97332.59;;;16.77;100.00
66880;BME280;72009;51.392;10.234;2023-09-19T00:05:24;97329.03;;;16.77;100.00
66880;BME280;72009;51.392;10.234;2023-09-19T00:05:45;97331.78;;;16.77;100.00
66880;BME280;72009;51.392;10.234;2023-09-19T00:06:05;97331.78;;;16.77;100.00
66880;BME280;72009;51.392;10.234;2023-09-19T00:06:28;97329.03;;;16.77;100.00
66880;BME280;72009;51.392;10.234;2023-09-19T00:06:49;97328.19;;;16.76;100.00
66880;BME280;72009;51.392;10.234;2023-09-19T00:07:09;97317.91;;;16.77;100.00
66880;BME280;72009;51.392;10.234;2023-09-19T00:07:29;97329.03;;;16.77;100.00
66880;BME280;72009;51.392;10.234;2023-09-19T00:07:51;97330.59;;;16.78;100.00
66880;BME280;72009;51.392;10.234;2023-09-19T00:08:11;97327.03;;;16.77;100.00
66880;BME280;72009;51.392;10.234;2023-09-19T00:08:31;97325.03;;;16.78;100.00
66880;BME280;72009;51.392;10.234;2023-09-19T00:08:52;97331.78;;;16.77;100.00
66880;BME280;72009;51.392;10.234;2023-09-19T00:09:12;97329.03;;;16.77;100.00
66880;BME280;72009;51.392;10.234;2023-09-19T00:09:32;97333.38;;;16.78;100.00
66880;BME280;72009;51.392;10.234;2023-09-19T00:09:53;97335.72;;;16.76;100.00
66880;BME280;72009;51.392;10.234;2023-09-19T00:10:13;97331.78;;;16.77;100.00
66880;BME280;72009;51.392;10.234;2023-09-19T00:10:33;97325.78;;;16.74;100.00
66880;BME280;72009;51.392;10.234;2023-09-19T00:10:54;97329.38;;;16.75;100.00
66880;BME280;72009;51.392;10.234;2023-09-19T00:11:14;97319.44;;;16.74;100.00
66880;BME280;72009;51.392;10.234;2023-09-19T00:11:35;97331.34;;;16.74;100.00
66880;BME280;72009;51.392;10.234;2023-09-19T00:11:55;97334.50;;;16.73;100.00
66880;BME280;72009;51.392;10.234;2023-09-19T00:12:15;97329.75;;;16.73;100.00
66880;BME280;72009;51.392;10.234;2023-09-19T00:12:35;97330.91;;;16.72;100.00
66880;BME280;72009;51.392;10.234;2023-09-19T00:12:58;97341.22;;;16.72;100.00
66880;BME280;72009;51.392;10.234;2023-09-19T00:13:18;97340.41;;;16.71;100.00
66880;BME280;72009;51.392;10.234;2023-09-19T00:13:38;97333.63;;;16.69;100.00
66880;BME280;72009;51.392;10.234;2023-09-19T00:13:59;97336.41;;;16.69;100.00
66880;BME280;72009;51.392;10.234;2023-09-19T00:14:19;97336.75;;;16.67;100.00
66880;BME280;72009;51.392;10.234;2023-09-19T00:14:39;97335.97;;;16.67;100.00
66880;BME280;72009;51.392;10.234;2023-09-19T00:15:00;97343.50;;;16.66;100.00
66880;BME280;72009;51.392;10.234;2023-09-19T00:15:20;97351.00;;;16.66;100.00
66880;BME280;72009;51.392;10.234;2023-09-19T00:15:44;97333.16;;;16.63;100.00
66880;BME280;72009;51.392;10.234;2023-09-19T00:16:10;97333.16;;;16.63;100.00
66880;BME280;72009;51.392;10.234;2023-09-19T00:16:30;97335.91;;;16.63;100.00
66880;BME280;72009;51.392;10.234;2023-09-19T00:16:51;97343.44;;;16.63;100.00
66880;BME280;72009;51.392;10.234;2023-09-19T00:17:11;97337.09;;;16.62;100.00
66880;BME280;72009;51.392;10.234;2023-09-19T00:17:31;97339.06;;;16.62;100.00
66880;BME280;72009;51.392;10.234;2023-09-19T00:17:52;97340.22;;;16.61;100.00
66880;BME280;72009;51.392;10.234;2023-09-19T00:18:12;97337.44;;;16.61;100.00
66880;BME280;72009;51.392;10.234;2023-09-19T00:18:32;97340.22;;;16.61;100.00
66880;BME280;72009;51.392;10.234;2023-09-19T00:18:53;97342.56;;;16.59;100.00
66880;BME280;72009;51.392;10.234;2023-09-19T00:19:13;97341.38;;;16.60;100.00
66880;BME280;72009;51.392;10.234;2023-09-19T00:19:36;97344.53;;;16.58;100.00
66880;BME280;72009;51.392;10.234;2023-09-19T00:19:57;97338.97;;;16.58;100.00
66880;BME280;72009;51.392;10.234;2023-09-19T00:20:17;97328.25;;;16.56;100.00
66880;BME280;72009;51.392;10.234;2023-09-19T00:20:38;97347.69;;;16.56;100.00
66880;BME280;72009;51.392;10.234;2023-09-19T00:20:58;97337.75;;;16.55;100.00
66880;BME280;72009;51.392;10.234;2023-09-19T00:21:19;97346.88;;;16.56;100.00
66880;BME280;72009;51.392;10.234;2023-09-19T00:21:39;97348.84;;;16.55;100.00
66880;BME280;72009;51.392;10.234;2023-09-19T00:22:00;97345.28;;;16.55;100.00
66880;BME280;72009;51.392;10.234;2023-09-19T00:22:21;97343.66;;;16.54;100.00
66880;BME280;72009;51.392;10.234;2023-09-19T00:22:42;97344.47;;;16.54;100.00
66880;BME280;72009;51.392;10.234;2023-09-19T00:23:02;97340.88;;;16.54;100.00
66880;BME280;72009;51.392;10.234;2023-09-19T00:23:22;97339.72;;;16.55;100.00
66880;BME280;72009;51.392;10.234;2023-09-19T00:23:43;97343.66;;;16.54;100.00
66880;BME280;72009;51.392;10.234;2023-09-19T00:24:04;97346.44;;;16.54;100.00
66880;BME280;72009;51.392;10.234;2023-09-19T00:24:24;97348.41;;;16.53;100.00
66880;BME280;72009;51.392;10.234;2023-09-19T00:24:45;97348.41;;;16.53;100.00
66880;BME280;72009;51.392;10.234;2023-09-19T00:25:05;97348.41;;;16.53;100.00
66880;BME280;72009;51.392;10.234;2023-09-19T00:25:26;97339.31;;;16.53;100.00
66880;BME280;72009;51.392;10.234;2023-09-19T00:25:46;97338.47;;;16.52;100.00
66880;BME280;72009;51.392;10.234;2023-09-19T00:26:06;97345.22;;;16.51;100.00
66880;BME280;72009;51.392;10.234;2023-09-19T00:26:26;97339.66;;;16.51;100.00
66880;BME280;72009;51.392;10.234;2023-09-19T00:26:47;97341.63;;;16.51;100.00
66880;BME280;72009;51.392;10.234;2023-09-19T00:27:07;97342.81;;;16.50;100.00
66880;BME280;72009;51.392;10.234;2023-09-19T00:27:28;97343.97;;;16.49;100.00
66880;BME280;72009;51.392;10.234;2023-09-19T00:27:48;97344.34;;;16.47;100.00
66880;BME280;72009;51.392;10.234;2023-09-19T00:28:08;97348.66;;;16.45;100.00
66880;BME280;72009;51.392;10.234;2023-09-19T00:28:29;97352.59;;;16.44;100.00
66880;BME280;72009;51.392;10.234;2023-09-19T00:28:52;97350.19;;;16.42;100.00
66880;BME280;72009;51.392;10.234;2023-09-19T00:29:12;97346.59;;;16.42;100.00
66880;BME280;72009;51.392;10.234;2023-09-19T00:29:33;97350.53;;;16.41;100.00
66880;BME280;72009;51.392;10.234;2023-09-19T00:29:53;97353.31;;;16.41;100.00
66880;BME280;72009;51.392;10.234;2023-09-19T00:30:14;97344.19;;;16.40;100.00
66880;BME280;72009;51.392;10.234;2023-09-19T00:30:34;97350.53;;;16.41;100.00
66880;BME280;72009;51.392;10.234;2023-09-19T00:30:55;97355.31;;;16.40;100.00
66880;BME280;72009;51.392;10.234;2023-09-19T00:31:16;97350.13;;;16.38;100.00
66880;BME280;72009;51.392;10.234;2023-09-19T00:31:36;97350.91;;;16.39;100.00
66880;BME280;72009;51.392;10.234;2023-09-19T00:31:56;97352.91;;;16.38;100.00
66880;BME280;72009;51.392;10.234;2023-09-19T00:32:16;97358.06;;;16.40;100.00
66880;BME280;72009;51.392;10.234;2023-09-19T00:32:37;97355.66;;;16.38;100.00
66880;BME280;72009;51.392;10.234;2023-09-19T00:32:57;97355.66;;;16.38;100.00
66880;BME280;72009;51.392;10.234;2023-09-19T00:33:18;97354.88;;;16.38;100.00
66880;BME280;72009;51.392;10.234;2023-09-19T00:33:38;97354.06;;;16.37;100.00
66880;BME280;72009;51.392;10.234;2023-09-19T00:33:58;97353.63;;;16.35;100.00
66880;BME280;72009;51.392;10.234;2023-09-19T00:34:19;97352.44;;;16.36;100.00
66880;BME280;72009;51.392;10.234;2023-09-19T00:34:39;97353.25;;;16.37;100.00
66880;BME280;72009;51.392;10.234;2023-09-19T00:34:59;97348.50;;;16.37;100.00
66880;BME280;72009;51.392;10.234;2023-09-19T00:35:21;97356.03;;;16.37;100.00
66880;BME280;72009;51.392;10.234;2023-09-19T00:35:49;97342.16;;;16.37;100.00
66880;BME280;72009;51.392;10.234;2023-09-19T00:36:09;97353.63;;;16.35;100.00
66880;BME280;72009;51.392;10.234;2023-09-19T00:36:30;97352.44;;;16.36;100.00
66880;BME280;72009;51.392;10.234;2023-09-19T00:36:51;97346.88;;;16.36;100.00
66880;BME280;72009;51.392;10.234;2023-09-19T00:37:11;97353.25;;;16.37;100.00
66880;BME280;72009;51.392;10.234;2023-09-19T00:37:31;97355.22;;;16.36;100.00
66880;BME280;72009;51.392;10.234;2023-09-19T00:37:52;97356.41;;;16.35;100.00
66880;BME280;72009;51.392;10.234;2023-09-19T00:38:13;97356.41;;;16.35;100.00
66880;BME280;72009;51.392;10.234;2023-09-19T00:38:33;97350.84;;;16.35;100.00
66880;BME280;72009;51.392;10.234;2023-09-19T00:38:53;97352.44;;;16.36;100.00
66880;BME280;72009;51.392;10.234;2023-09-19T00:39:14;97359.19;;;16.35;100.00
66880;BME280;72009;51.392;10.234;2023-09-19T00:39:34;97354.41;;;16.36;100.00
66880;BME280;72009;51.392;10.234;2023-09-19T00:39:54;97359.19;;;16.35;100.00
66880;BME280;72009;51.392;10.234;2023-09-19T00:40:14;97361.13;;;16.35;100.00
66880;BME280;72009;51.392;10.234;2023-09-19T00:40:35;97355.59;;;16.35;100.00
66880;BME280;72009;51.392;10.234;2023-09-19T00:40:55;97352.38;;;16.33;100.00
66880;BME280;72009;51.392;10.234;2023-09-19T00:41:15;97361.88;;;16.32;100.00
66880;BME280;72009;51.392;10.234;2023-09-19T00:41:36;97360.28;;;16.31;100.00
66880;BME280;72009;51.392;10.234;2023-09-19T00:41:56;97364.59;;;16.28;100.00
66880;BME280;72009;51.392;10.234;2023-09-19T00:42:20;97358.59;;;16.26;100.00
66880;BME280;72009;51.392;10.234;2023-09-19T00:42:44;97359.41;;;16.27;100.00
66880;BME280;72009;51.392;10.234;2023-09-19T00:43:04;97358.94;;;16.25;100.00
66880;BME280;72009;51.392;10.234;2023-09-19T00:43:24;97353.75;;;16.23;100.00
66880;BME280;72009;51.392;10.234;2023-09-19T00:43:45;97351.81;;;16.24;100.00
66880;BME280;72009;51.392;10.234;2023-09-19T00:44:05;97351.81;;;16.24;100.00
66880;BME280;72009;51.392;10.234;2023-09-19T00:44:25;97356.53;;;16.23;100.00
66880;BME280;72009;51.392;10.234;2023-09-19T00:44:47;97358.53;;;16.23;100.00
66880;BME280;72009;51.392;10.234;2023-09-19T00:45:12;97352.97;;;16.23;100.00
66880;BME280;72009;51.392;10.234;2023-09-19T00:45:33;97362.09;;;16.23;100.00
66880;BME280;72009;51.392;10.234;2023-09-19T00:45:55;97366.06;;;16.22;100.00
66880;BME280;72009;51.392;10.234;2023-09-19T00:46:19;97360.50;;;16.22;100.00
66880;BME280;72009;51.392;10.234;2023-09-19T00:46:39;97364.44;;;16.21;100.00
66880;BME280;72009;51.392;10.234;2023-09-19T00:47:00;97356.13;;;16.21;100.00
66880;BME280;72009;51.392;10.234;2023-09-19T00:47:20;97358.88;;;16.21;100.00
66880;BME280;72009;51.392;10.234;2023-09-19T00:47:44;97362.81;;;16.20;100.00
66880;BME280;72009;51.392;10.234;2023-09-19T00:48:05;97368.38;;;16.20;100.00
66880;BME280;72009;51.392;10.234;2023-09-19T00:48:26;97365.16;;;16.18;100.00
66880;BME280;72009;51.392;10.234;2023-09-19T00:48:46;97363.56;;;16.17;100.00
66880;BME280;72009;51.392;10.234;2023-09-19T00:49:08;97363.56;;;16.17;100.00
66880;BME280;72009;51.392;10.234;2023-09-19T00:49:29;97362.75;;;16.16;100.00
66880;BME280;72009;51.392;10.234;2023-09-19T00:49:49;97363.91;;;16.15;100.00
66880;BME280;72009;51.392;10.234;2023-09-19T00:50:11;97364.28;;;16.14;100.00
66880;BME280;72009;51.392;10.234;2023-09-19T00:50:31;97365.09;;;16.14;100.00
66880;BME280;72009;51.392;10.234;2023-09-19T00:50:52;97362.34;;;16.14;100.00
66880;BME280;72009;51.392;10.234;2023-09-19T00:51:13;97365.91;;;16.15;100.00
66880;BME280;72009;51.392;10.234;2023-09-19T00:51:34;97361.50;;;16.14;100.00
66880;BME280;72009;51.392;10.234;2023-09-19T00:51:55;97360.34;;;16.15;100.00
66880;BME280;72009;51.392;10.234;2023-09-19T00:52:16;97367.06;;;16.14;100.00
66880;BME280;72009;51.392;10.234;2023-09-19T00:52:38;97367.88;;;16.14;100.00
66880;BME280;72009;51.392;10.234;2023-09-19T00:52:59;97368.25;;;16.13;100.00
66880;BME280;72009;51.392;10.234;2023-09-19T00:53:22;97368.25;;;16.13;100.00
66880;BME280;72009;51.392;10.234;2023-09-19T00:53:43;97357.94;;;16.13;100.00
66880;BME280;72009;51.392;10.234;2023-09-19T00:54:04;97368.25;;;16.13;100.00
66880;BME280;72009;51.392;10.234;2023-09-19T00:54:25;97362.69;;;16.13;100.00
66880;BME280;72009;51.392;10.234;2023-09-19T00:54:47;97364.28;;;16.14;100.00
66880;BME280;72009;51.392;10.234;2023-09-19T00:55:11;97364.28;;;16.14;100.00
66880;BME280;72009;51.392;10.234;2023-09-19T00:55:32;97364.28;;;16.14;100.00
66880;BME280;72009;51.392;10.234;2023-09-19T00:55:52;97367.88;;;16.14;100.00
66880;BME280;72009;51.392;10.234;2023-09-19T00:56:14;97369.84;;;16.14;100.00
66880;BME280;72009;51.392;10.234;2023-09-19T00:56:35;97369.84;;;16.14;100.00
66880;BME280;72009;51.392;10.234;2023-09-19T00:56:55;97367.88;;;16.14;100.00
66880;BME280;72009;51.392;10.234;2023-09-19T00:57:16;97362.34;;;16.14;100.00
66880;BME280;72009;51.392;10.234;2023-09-19T00:57:38;97366.69;;;16.15;100.00
66880;BME280;72009;51.392;10.234;2023-09-19T00:57:58;97367.88;;;16.14;100.00
66880;BME280;72009;51.392;10.234;2023-09-19T00:58:19;97363.13;;;16.15;100.00
66880;BME280;72009;51.392;10.234;2023-09-19T00:58:40;97366.69;;;16.15;100.00
66880;BME280;72009;51.392;10.234;2023-09-19T00:59:00;97366.25;;;16.13;100.00
66880;BME280;72009;51.392;10.234;2023-09-19T00:59:20;97367.06;;;16.14;100.00
66880;BME280;72009;51.392;10.234;2023-09-19T00:59:41;97363.50;;;16.13;100.00
66880;BME280;72009;51.392;10.234;2023-09-19T01:00:03;97368.25;;;16.13;100.00
66880;BME280;72009;51.392;10.234;2023-09-19T01:00:23;97362.69;;;16.13;100.00
66880;BME280;72009;51.392;10.234;2023-09-19T01:00:44;97364.22;;;16.10;100.00
66880;BME280;72009;51.392;10.234;2023-09-19T01:01:05;97362.25;;;16.11;100.00
66880;BME280;72009;51.392;10.234;2023-09-19T01:01:25;97363.84;;;16.12;100.00
66880;BME280;72009;51.392;10.234;2023-09-19T01:01:45;97374.94;;;16.12;100.00
66880;BME280;72009;51.392;10.234;2023-09-19T01:02:06;97365.00;;;16.11;100.00
66880;BME280;72009;51.392;10.234;2023-09-19T01:02:26;97362.25;;;16.11;100.00
66880;BME280;72009;51.392;10.234;2023-09-19T01:02:47;97364.22;;;16.10;100.00
66880;BME280;72009;51.392;10.234;2023-09-19T01:03:09;97363.75;;;16.08;100.00
66880;BME280;72009;51.392;10.234;2023-09-19T01:03:29;97363.75;;;16.08;100.00
66880;BME280;72009;51.392;10.234;2023-09-19T01:03:50;97370.13;;;16.09;100.00
66880;BME280;72009;51.392;10.234;2023-09-19T01:04:10;97370.13;;;16.09;100.00
66880;BME280;72009;51.392;10.234;2023-09-19T01:04:31;97367.38;;;16.09;100.00
66880;BME280;72009;51.392;10.234;2023-09-19T01:04:52;97370.13;;;16.09;100.00
66880;BME280;72009;51.392;10.234;2023-09-19T01:05:12;97369.69;;;16.07;100.00
66880;BME280;72009;51.392;10.234;2023-09-19T01:05:33;97371.66;;;16.06;100.00
66880;BME280;72009;51.392;10.234;2023-09-19T01:05:54;97366.47;;;16.05;100.00
66880;BME280;72009;51.392;10.234;2023-09-19T01:06:14;97368.09;;;16.06;100.00
66880;BME280;72009;51.392;10.234;2023-09-19T01:06:35;97378.00;;;16.07;100.00
66880;BME280;72009;51.392;10.234;2023-09-19T01:06:55;97372.38;;;16.03;100.00
66880;BME280;72009;51.392;10.234;2023-09-19T01:07:16;97371.13;;;16.00;100.00
66880;BME280;72009;51.392;10.234;2023-09-19T01:07:37;97371.13;;;16.00;100.00
66880;BME280;72009;51.392;10.234;2023-09-19T01:07:57;97371.13;;;16.00;100.00
66880;BME280;72009;51.392;10.234;2023-09-19T01:08:18;97369.19;;;16.01;100.00
66880;BME280;72009;51.392;10.234;2023-09-19T01:08:38;97372.28;;;15.99;100.00
66880;BME280;72009;51.392;10.234;2023-09-19T01:08:58;97362.81;;;16.00;100.00
66880;BME280;72009;51.392;10.234;2023-09-19T01:09:20;97371.13;;;16.00;100.00
66880;BME280;72009;51.392;10.234;2023-09-19T01:09:41;97368.72;;;15.99;100.00
66880;BME280;72009;51.392;10.234;2023-09-19T01:10:06;97371.13;;;16.00;100.00
66880;BME280;72009;51.392;10.234;2023-09-19T01:10:28;97364.81;;;16.00;100.00
66880;BME280;72009;51.392;10.234;2023-09-19T01:10:58;97363.66;;;16.01;100.00
66880;BME280;72009;51.392;10.234;2023-09-19T01:11:38;97369.19;;;16.01;100.00
66880;BME280;72009;51.392;10.234;2023-09-19T01:12:04;97372.75;;;16.01;100.00
66880;BME280;72009;51.392;10.234;2023-09-19T01:12:39;97379.09;;;16.02;100.00
66880;BME280;72009;51.392;10.234;2023-09-19T01:14:55;97378.31;;;16.01;100.00
66880;BME280;72009;51.392;10.234;2023-09-19T01:16:36;97379.03;;;15.98;100.00
66880;BME280;72009;51.392;10.234;2023-09-19T01:17:29;97381.81;;;15.98;100.00
66880;BME280;72009;51.392;10.234;2023-09-19T01:18:00;97385.38;;;15.99;100.00
66880;BME280;72009;51.392;10.234;2023-09-19T01:20:37;97386.88;;;15.96;100.00
66880;BME280;72009;51.392;10.234;2023-09-19T01:22:45;97386.53;;;15.98;100.00
66880;BME280;72009;51.392;10.234;2023-09-19T01:24:54;97386.09;;;15.96;100.00
66880;BME280;72009;51.392;10.234;2023-09-19T01:26:05;97394.78;;;15.94;100.00
66880;BME280;72009;51.392;10.234;2023-09-19T01:27:31;97400.25;;;15.91;100.00
66880;BME280;72009;51.392;10.234;2023-09-19T01:28:20;97404.56;;;15.88;100.00
66880;BME280;72009;51.392;10.234;2023-09-19T01:29:00;97395.31;;;15.84;100.00
66880;BME280;72009;51.392;10.234;2023-09-19T01:29:38;97398.03;;;15.80;100.00
66880;BME280;72009;51.392;10.234;2023-09-19T01:30:17;97402.75;;;15.80;100.00
66880;BME280;72009;51.392;10.234;2023-09-19T01:30:43;97394.44;;;15.80;100.00
66880;BME280;72009;51.392;10.234;2023-09-19T01:31:07;97399.19;;;15.79;100.00
66880;BME280;72009;51.392;10.234;2023-09-19T01:31:31;97398.03;;;15.80;100.00
66880;BME280;72009;51.392;10.234;2023-09-19T01:31:54;97398.03;;;15.80;100.00
66880;BME280;72009;51.392;10.234;2023-09-19T01:32:20;97401.59;;;15.81;100.00
66880;BME280;72009;51.392;10.234;2023-09-19T01:32:42;97403.56;;;15.80;100.00
66880;BME280;72009;51.392;10.234;2023-09-19T01:33:03;97398.81;;;15.81;100.00
66880;BME280;72009;51.392;10.234;2023-09-19T01:33:25;97405.16;;;15.81;100.00
66880;BME280;72009;51.392;10.234;2023-09-19T01:34:03;97404.34;;;15.81;100.00
66880;BME280;72009;51.392;10.234;2023-09-19T01:34:24;97406.34;;;15.80;100.00
66880;BME280;72009;51.392;10.234;2023-09-19T01:34:55;97398.38;;;15.79;100.00
66880;BME280;72009;51.392;10.234;2023-09-19T01:35:15;97408.66;;;15.78;100.00
66880;BME280;72009;51.392;10.234;2023-09-19T01:35:39;97405.88;;;15.78;100.00
66880;BME280;72009;51.392;10.234;2023-09-19T01:35:59;97414.19;;;15.78;100.00
66880;BME280;72009;51.392;10.234;2023-09-19T01:36:19;97410.16;;;15.76;100.00
66880;BME280;72009;51.392;10.234;2023-09-19T01:36:40;97401.41;;;15.74;100.00
66880;BME280;72009;51.392;10.234;2023-09-19T01:37:00;97411.34;;;15.75;100.00
66880;BME280;72009;51.392;10.234;2023-09-19T01:37:21;97416.06;;;15.74;100.00
66880;BME280;72009;51.392;10.234;2023-09-19T01:37:41;97412.50;;;15.74;100.00
66880;BME280;72009;51.392;10.234;2023-09-19T01:38:02;97403.75;;;15.72;100.00
66880;BME280;72009;51.392;10.234;2023-09-19T01:38:22;97415.22;;;15.70;100.00
66880;BME280;72009;51.392;10.234;2023-09-19T01:38:42;97410.81;;;15.69;100.00
66880;BME280;72009;51.392;10.234;2023-09-19T01:39:08;97411.63;;;15.69;100.00
66880;BME280;72009;51.392;10.234;2023-09-19T01:39:30;97415.22;;;15.70;100.00
66880;BME280;72009;51.392;10.234;2023-09-19T01:40:04;97410.47;;;15.71;100.00
66880;BME280;72009;51.392;10.234;2023-09-19T01:40:26;97412.06;;;15.72;100.00
66880;BME280;72009;51.392;10.234;2023-09-19T01:41:03;97406.44;;;15.68;100.00
66880;BME280;72009;51.392;10.234;2023-09-19T01:41:39;97417.97;;;15.70;100.00
66880;BME280;72009;51.392;10.234;2023-09-19T01:42:18;97410.81;;;15.69;100.00
66880;BME280;72009;51.392;10.234;2023-09-19T01:42:47;97408.06;;;15.69;100.00
66880;BME280;72009;51.392;10.234;2023-09-19T01:43:29;97415.09;;;15.66;100.00
66880;BME280;72009;51.392;10.234;2023-09-19T01:43:51;97412.34;;;15.66;100.00
66880;BME280;72009;51.392;10.234;2023-09-19T01:44:21;97406.78;;;15.66;100.00
66880;BME280;72009;51.392;10.234;2023-09-19T01:44:59;97411.53;;;15.66;100.00
66880;BME280;72009;51.392;10.234;2023-09-19T01:46:04;97405.22;;;15.65;100.00
66880;BME280;72009;51.392;10.234;2023-09-19T01:46:40;97411.53;;;15.66;100.00
66880;BME280;72009;51.392;10.234;2023-09-19T01:47:13;97416.28;;;15.65;100.00
66880;BME280;72009;51.392;10.234;2023-09-19T01:48:16;97417.44;;;15.64;100.00
66880;BME280;72009;51.392;10.234;2023-09-19T01:49:46;97418.53;;;15.60;100.00
66880;BME280;72009;51.392;10.234;2023-09-19T01:50:46;97407.34;;;15.56;100.00
66880;BME280;72009;51.392;10.234;2023-09-19T01:51:11;97403.78;;;15.56;100.00
66880;BME280;72009;51.392;10.234;2023-09-19T01:51:46;97408.06;;;15.53;100.00
66880;BME280;72009;51.392;10.234;2023-09-19T01:52:12;97408.06;;;15.53;100.00
66880;BME280;72009;51.392;10.234;2023-09-19T01:52:41;97408.44;;;15.51;100.00
66880;BME280;72009;51.392;10.234;2023-09-19T01:53:10;97413.19;;;15.51;100.00
66880;BME280;72009;51.392;10.234;2023-09-19T01:53:45;97406.03;;;15.50;100.00
66880;BME280;72009;51.392;10.234;2023-09-19T01:54:12;97408.00;;;15.49;100.00
66880;BME280;72009;51.392;10.234;2023-09-19T01:54:41;97406.38;;;15.48;100.00
66880;BME280;72009;51.392;10.234;2023-09-19T01:55:09;97409.50;;;15.47;100.00
66880;BME280;72009;51.392;10.234;2023-09-19T01:55:37;97412.66;;;15.45;100.00
66880;BME280;72009;51.392;10.234;2023-09-19T01:56:01;97406.31;;;15.45;100.00
66880;BME280;72009;51.392;10.234;2023-09-19T01:57:29;97415.78;;;15.44;100.00
66880;BME280;72009;51.392;10.234;2023-09-19T01:58:06;97405.41;;;15.41;100.00
66880;BME280;72009;51.392;10.234;2023-09-19T01:58:57;97411.66;;;15.38;100.00
66880;BME280;72009;51.392;10.234;2023-09-19T02:00:18;97412.38;;;15.35;100.00
66880;BME280;72009;51.392;10.234;2023-09-19T02:00:19;97408.44;;;15.36;100.00
66880;BME280;72009;51.392;10.234;2023-09-19T02:00:42;97406.38;;;15.32;100.00
66880;BME280;72009;51.392;10.234;2023-09-19T02:01:05;97413.09;;;15.31;100.00
66880;BME280;72009;51.392;10.234;2023-09-19T02:01:28;97411.94;;;15.32;100.00
66880;BME280;72009;51.392;10.234;2023-09-19T02:01:52;97416.31;;;15.33;100.00
66880;BME280;72009;51.392;10.234;2023-09-19T02:02:15;97417.09;;;15.34;100.00
66880;BME280;72009;51.392;10.234;2023-09-19T02:02:38;97413.91;;;15.32;100.00
66880;BME280;72009;51.392;10.234;2023-09-19T02:03:00;97411.94;;;15.32;100.00
66880;BME280;72009;51.392;10.234;2023-09-19T02:03:22;97408.38;;;15.32;100.00
66880;BME280;72009;51.392;10.234;2023-09-19T02:03:47;97415.53;;;15.33;100.00
66880;BME280;72009;51.392;10.234;2023-09-19T02:04:08;97415.53;;;15.33;100.00
66880;BME280;72009;51.392;10.234;2023-09-19T02:04:28;97411.13;;;15.32;100.00
66880;BME280;72009;51.392;10.234;2023-09-19T02:04:49;97413.91;;;15.32;100.00
66880;BME280;72009;51.392;10.234;2023-09-19T02:05:10;97420.25;;;15.32;100.00
66880;BME280;72009;51.392;10.234;2023-09-19T02:05:30;97421.06;;;15.33;100.00
66880;BME280;72009;51.392;10.234;2023-09-19T02:05:51;97415.53;;;15.33;100.00
66880;BME280;72009;51.392;10.234;2023-09-19T02:06:16;97424.63;;;15.33;100.00
66880;BME280;72009;51.392;10.234;2023-09-19T02:06:41;97427.75;;;15.32;100.00
66880;BME280;72009;51.392;10.234;2023-09-19T02:07:02;97418.66;;;15.31;100.00
66880;BME280;72009;51.392;10.234;2023-09-19T02:07:22;97417.81;;;15.31;100.00
66880;BME280;72009;51.392;10.234;2023-09-19T02:07:42;97427.66;;;15.28;100.00
66880;BME280;72009;51.392;10.234;2023-09-19T02:08:03;97423.28;;;15.27;100.00
66880;BME280;72009;51.392;10.234;2023-09-19T02:08:24;97423.66;;;15.26;100.00
66880;BME280;72009;51.392;10.234;2023-09-19T02:08:45;97431.97;;;15.26;100.00
66880;BME280;72009;51.392;10.234;2023-09-19T02:09:05;97425.59;;;15.25;100.00
66880;BME280;72009;51.392;10.234;2023-09-19T02:09:25;97428.00;;;15.27;100.00
66880;BME280;72009;51.392;10.234;2023-09-19T02:09:46;97424.44;;;15.26;100.00
66880;BME280;72009;51.392;10.234;2023-09-19T02:10:06;97416.13;;;15.26;100.00
66880;BME280;72009;51.392;10.234;2023-09-19T02:10:27;97421.69;;;15.26;100.00
66880;BME280;72009;51.392;10.234;2023-09-19T02:10:47;97429.19;;;15.26;100.00
66880;BME280;72009;51.392;10.234;2023-09-19T02:11:08;97424.81;;;15.25;100.00
66880;BME280;72009;51.392;10.234;2023-09-19T02:11:28;97430.34;;;15.25;100.00
66880;BME280;72009;51.392;10.234;2023-09-19T02:11:48;97425.97;;;15.24;100.00
66880;BME280;72009;51.392;10.234;2023-09-19T02:12:09;97425.97;;;15.24;100.00
66880;BME280;72009;51.392;10.234;2023-09-19T02:12:29;97427.94;;;15.23;100.00